This is the latest recevied weather packets stored in our database for station/object VU2EXP-13. If no packets are shown the sender has not sent any weather packets the latest 10 day(s).
| Time | Temp. | Humidity | Pressure | Rain* | Wind** | Luminosity | Snow |
|---|---|---|---|---|---|---|---|
| 1787752849 | 31.11° C | 59% | 990 hPa | - | - | - | - |
| 1787751949 | 31.67° C | 59% | 989.8 hPa | - | - | - | - |
| 1787751048 | 31.67° C | 58% | 989.7 hPa | - | - | - | - |
| 1787750148 | 31.67° C | 58% | 989.6 hPa | - | - | - | - |
| 1787749249 | 32.22° C | 58% | 989.5 hPa | - | - | - | - |
| 1787748349 | 32.22° C | 57% | 989.3 hPa | - | - | - | - |
| 1787747448 | 32.78° C | 56% | 989.2 hPa | - | - | - | - |
| 1787746548 | 32.78° C | 55% | 989.2 hPa | - | - | - | - |
| 1787745648 | 33.33° C | 53% | 989.2 hPa | - | - | - | - |
| 1787744748 | 33.33° C | 51% | 989.2 hPa | - | - | - | - |
| 1787743848 | 33.33° C | 47% | 989.2 hPa | - | - | - | - |
| 1787742949 | 34.44° C | 46% | 989.1 hPa | - | - | - | - |
| 1787742047 | 33.33° C | 47% | 989.3 hPa | - | - | - | - |
| 1787741148 | 34.44° C | 46% | 989.3 hPa | - | - | - | - |
| 1787740248 | 33.89° C | 48% | 989.4 hPa | - | - | - | - |
| 1787739347 | 33.89° C | 49% | 989.6 hPa | - | - | - | - |
| 1787738447 | 34.44° C | 46% | 989.6 hPa | - | - | - | - |
| 1787737548 | 35.56° C | 44% | 989.8 hPa | - | - | - | - |
| 1787736647 | 33.89° C | 49% | 990.1 hPa | - | - | - | - |
| 1787735746 | 33.33° C | 49% | 990.4 hPa | - | - | - | - |
| 1787734846 | 34.44° C | 47% | 990.4 hPa | - | - | - | - |
| 1787733948 | 33.33° C | 50% | 990.6 hPa | - | - | - | - |
| 1787733046 | 35° C | 47% | 990.6 hPa | - | - | - | - |
| 1787732146 | 33.89° C | 49% | 990.8 hPa | - | - | - | - |
| 1787731246 | 32.78° C | 50% | 991.2 hPa | - | - | - | - |
* Rain since midnight (hover to see other rain measurements)
** Current wind speed in m/s (hover to see current wind gust speed)